Terminal Aerodrome Forecast
Issued by NWS Charleston, WV

Current Version | Previous Version | Graphics & Text | Print | Product List | Glossary On
Versions: 1 2 3 4 5 6 7 8 9 10 11 12 13 14 15 16 17 18 19 20 21 22 23
147
FTUS41 KRLX 152347
TAFCRW
TAF
KCRW 152347Z 1600/1624 33013G25KT P6SM FEW015 BKN040
     FM160020 33015G32KT 2SM SHRA BR FEW012 BKN020 OVC040
     FM160050 33012G21KT 6SM -SHRA BR SCT020 OVC035
     FM160200 30009G15KT P6SM BKN025
     FM160900 32007KT 3SM BR BKN015
     FM161300 32004KT P6SM SCT025=

USA.gov is the U.S. government's official web portal to all federal, state and local government web resources and services.